Burwash Airport
CYDB : now visible

Airfield :











YOU CAN JOIN US ON...

 
LOGIN :

Register | Disclaimer

   EN    FR    IT 

 









Legend :    VFR   Marginal VFR   IFR   Intensive IFR   Very Intensive IFR
Visi :
Ceiling :
>= 8 km
>= 3000ft
5 to 8 km
1000 to 3000 ft
1500m to 5 km
500 to 1000 ft
800 to 1500m
200 to 500 ft
< 800m
< 200 ft
Symbols :   Thunderstorms  Fog  Heavy snow  Heavy precipitations  Wind > 20 kt






- Airport Elevation : 2647 ft
- IATA code : YDB


CYDB - Burwash

CURRENT METAR :
  • 171500Z 30002KT 20SM FEW005 M44/M48 A3014 RMK ST2 /48010/ SLP336

EXPIRED METARs :
  • 171400Z AUTO 00000KT 9SM CLR M43/M47 A3014 RMK SLP332
  • 171300Z AUTO 28003KT 270V350 9SM CLR M43/M47 A3014 RMK SLP330

TAF TAF CYDB
Valid from the 17 at 12:00 until the 18 at 00:00 UTC


171138Z 1712/1724 VRB03KT P6SM SCT003
TEMPO 1712/1718 2SM BR BKN003
FM171800 13006KT P6SM FEW015 RMK FCST BASED ON AUTO OBS. NXT FCST BY 171800Z



MET'MAP, your aeronautical weather chart ! - Copyright ORBIFLY December 2007 - Disclaimer

ORBIFLY MET'MAP TEAM :

Programming & Development : Alexandra Zaïnal
Concept & original design : Baudouin d'Aumeries
Assistance for programming : Marc-Olivier Méhu
Technical & hardware support : Manuel Goepfert

Contact : metmap@orbifly.com




SOURCES & CREDITS :

   NOAA       Earth
Advisory